Terminal Aerodrome Forecast
Issued by NWS Brownsville, TX

Home | Current Version | Previous Version | Text Only | Print | Product List | Glossary On
Versions: 1 2 3 4 5 6 7 8 9 10 11 12 13
000
FTUS44 KBRO 221700
TAFBRO
TAF
KBRO 221720Z 2218/2318 16013G19KT P6SM FEW050
     FM230300 13006KT P6SM SKC
     FM231500 15012KT P6SM FEW250=

USA.gov is the U.S. government's official web portal to all federal, state and local government web resources and services.